createdAt,value
2023-04-10T00:01:45.963Z,84.29
2023-04-10T00:04:12.512Z,84.90
2023-04-10T00:06:38.987Z,84.39
2023-04-10T00:09:05.349Z,83.98
2023-04-10T00:11:31.767Z,84.70
2023-04-10T00:13:58.125Z,83.38
2023-04-10T00:16:24.487Z,85.77
2023-04-10T00:18:50.929Z,87.02
2023-04-10T00:21:17.412Z,86.11
2023-04-10T00:23:43.833Z,86.02
2023-04-10T00:26:10.393Z,85.33
2023-04-10T00:28:38.027Z,86.70
2023-04-10T00:31:05.260Z,86.50
2023-04-10T00:33:31.600Z,86.42
2023-04-10T00:35:57.960Z,87.74
2023-04-10T00:38:24.513Z,87.27
2023-04-10T00:40:51.011Z,85.27
2023-04-10T00:43:20.112Z,85.48
2023-04-10T00:45:47.405Z,85.79
2023-04-10T00:48:15.658Z,85.28
2023-04-10T00:50:43.220Z,86.13
2023-04-10T00:53:09.713Z,85.14
2023-04-10T00:55:36.883Z,85.47
2023-04-10T00:58:03.437Z,86.51
2023-04-10T01:00:29.764Z,86.47
2023-04-10T01:02:56.292Z,85.48
2023-04-10T01:05:23.310Z,87.20
2023-04-10T01:08:02.602Z,88.31
2023-04-10T01:10:44.630Z,87.29
2023-04-10T01:13:32.691Z,86.11
2023-04-10T01:16:09.262Z,86.57
2023-04-10T01:18:46.217Z,86.13
2023-04-10T01:21:15.572Z,85.71
2023-04-10T01:24:19.636Z,85.60
2023-04-10T01:27:07.687Z,85.85
2023-04-10T01:29:36.556Z,85.53
2023-04-10T01:32:08.044Z,86.47
2023-04-10T01:34:45.029Z,88.50
2023-04-10T01:37:19.060Z,87.98
2023-04-10T01:39:50.346Z,87.59
2023-04-10T01:42:21.372Z,87.15
2023-04-10T01:44:50.186Z,87.18
2023-04-10T01:47:18.059Z,87.23
2023-04-10T01:49:47.037Z,88.53
2023-04-10T01:52:15.724Z,88.86
2023-04-10T01:54:48.755Z,88.10
2023-04-10T01:57:22.008Z,87.02
2023-04-10T01:59:54.582Z,87.60
2023-04-10T02:02:21.106Z,88.85
2023-04-10T02:04:51.456Z,88.37
2023-04-10T02:07:31.404Z,88.41
2023-04-10T02:10:19.009Z,87.52
2023-04-10T02:12:53.882Z,86.41
2023-04-10T02:15:24.117Z,87.66
2023-04-10T02:17:52.328Z,87.76
2023-04-10T02:20:18.884Z,90.85
2023-04-10T02:22:47.140Z,92.11
2023-04-10T02:25:14.639Z,91.52
2023-04-10T02:27:41.519Z,91.74
2023-04-10T02:30:08.415Z,91.36
2023-04-10T02:32:36.668Z,93.19
2023-04-10T02:35:03.476Z,92.18
2023-04-10T02:37:31.228Z,94.75
2023-04-10T02:40:00.152Z,92.75
2023-04-10T02:42:28.203Z,91.93
2023-04-10T02:44:58.466Z,91.50
2023-04-10T02:47:25.834Z,92.02
2023-04-10T02:49:52.259Z,92.49
2023-04-10T02:52:18.701Z,93.00
2023-04-10T02:54:46.208Z,91.81
2023-04-10T02:57:12.512Z,91.44
2023-04-10T02:59:38.992Z,93.54
2023-04-10T03:02:05.990Z,92.87
2023-04-10T03:04:35.485Z,94.83
2023-04-10T03:07:02.276Z,96.62
2023-04-10T03:09:28.856Z,94.79
2023-04-10T03:11:55.296Z,92.51
2023-04-10T03:14:21.641Z,94.70
2023-04-10T03:16:48.087Z,92.81
2023-04-10T03:19:14.529Z,92.69
2023-04-10T03:21:40.878Z,91.76
2023-04-10T03:24:07.326Z,92.45
2023-04-10T03:26:33.901Z,91.84
2023-04-10T03:29:00.490Z,91.09
2023-04-10T03:31:27.631Z,91.04
2023-04-10T03:33:57.357Z,91.01
2023-04-10T03:36:24.224Z,92.75
2023-04-10T03:38:52.645Z,91.39
2023-04-10T03:41:19.005Z,92.56
2023-04-10T03:43:45.428Z,93.37
2023-04-10T03:46:12.498Z,92.98
2023-04-10T03:48:44.026Z,92.26
2023-04-10T03:51:10.649Z,91.65
2023-04-10T03:53:37.643Z,91.68
2023-04-10T03:56:08.463Z,91.75
2023-04-10T03:58:35.768Z,91.29
2023-04-10T04:01:02.492Z,92.00
2023-04-10T04:03:34.917Z,92.00
2023-04-10T04:06:24.311Z,90.86
2023-04-10T04:09:09.304Z,90.28
2023-04-10T04:11:50.634Z,94.24
2023-04-10T04:14:37.268Z,92.18
2023-04-10T04:17:23.008Z,92.49
2023-04-10T04:20:15.610Z,93.32
2023-04-10T04:22:42.152Z,93.89
2023-04-10T04:25:15.487Z,94.82
2023-04-10T04:27:47.653Z,94.85
2023-04-10T04:30:32.355Z,95.78
2023-04-10T04:33:17.787Z,96.05
2023-04-10T04:35:58.036Z,93.83
2023-04-10T04:38:47.859Z,93.19
2023-04-10T04:41:32.268Z,95.42
2023-04-10T04:44:10.641Z,96.09
2023-04-10T04:46:50.776Z,94.55
2023-04-10T04:49:35.757Z,94.86
2023-04-10T04:52:12.689Z,96.12
2023-04-10T04:55:02.256Z,94.11
2023-04-10T04:57:57.651Z,93.72
2023-04-10T05:00:40.535Z,94.00
2023-04-10T05:03:19.339Z,93.93
2023-04-10T05:06:04.639Z,94.06
2023-04-10T05:08:57.196Z,94.26
2023-04-10T05:11:46.796Z,95.01
2023-04-10T05:14:38.724Z,95.43
2023-04-10T05:17:23.440Z,94.60
2023-04-10T05:19:57.442Z,95.20
2023-04-10T05:22:43.842Z,94.81
2023-04-10T05:25:35.704Z,94.63
2023-04-10T05:28:08.670Z,95.49
2023-04-10T05:30:54.147Z,97.06
2023-04-10T05:33:45.986Z,96.11
2023-04-10T05:36:35.457Z,98.82
2023-04-10T05:39:15.589Z,100.00
2023-04-10T05:41:58.323Z,100.00
2023-04-10T05:44:31.027Z,100.00
2023-04-10T05:47:04.426Z,98.52
2023-04-10T05:49:53.564Z,100.00
2023-04-10T05:52:38.536Z,100.00
2023-04-10T05:55:26.484Z,100.00
2023-04-10T05:58:12.778Z,100.00
2023-04-10T06:00:57.865Z,98.46
2023-04-10T06:03:44.944Z,97.88
2023-04-10T06:06:12.057Z,98.63
2023-04-10T06:08:40.558Z,96.88
2023-04-10T06:11:06.909Z,99.05
2023-04-10T06:13:33.901Z,99.80
2023-04-10T06:16:01.794Z,100.00
2023-04-10T06:18:29.706Z,100.00
2023-04-10T06:20:57.979Z,100.00
2023-04-10T06:23:24.419Z,100.00
2023-04-10T06:25:51.040Z,100.00
2023-04-10T06:28:17.882Z,100.00
2023-04-10T06:30:47.937Z,100.00
2023-04-10T06:33:14.304Z,100.00
2023-04-10T06:35:43.691Z,100.00
2023-04-10T06:38:10.456Z,100.00
2023-04-10T06:40:37.163Z,100.00
2023-04-10T06:43:03.524Z,100.00
2023-04-10T06:45:37.042Z,100.00
2023-04-10T06:48:04.132Z,100.00
2023-04-10T06:50:33.272Z,100.00
2023-04-10T06:52:59.893Z,99.08
2023-04-10T06:55:26.873Z,98.82
2023-04-10T06:57:53.227Z,97.65
2023-04-10T07:00:19.858Z,96.58
2023-04-10T07:02:46.358Z,96.43
2023-04-10T07:05:13.274Z,95.17
2023-04-10T07:07:39.619Z,94.61
2023-04-10T07:10:07.017Z,94.72
2023-04-10T07:12:33.623Z,94.40
2023-04-10T07:15:00.148Z,95.03
2023-04-10T07:17:26.510Z,97.54
2023-04-10T07:19:52.840Z,97.59
2023-04-10T07:22:19.187Z,96.72
2023-04-10T07:24:45.652Z,95.77
2023-04-10T07:27:12.781Z,94.43
2023-04-10T07:29:39.142Z,93.18
2023-04-10T07:32:05.959Z,91.93
2023-04-10T07:34:32.594Z,91.27
2023-04-10T07:36:58.943Z,91.16
2023-04-10T07:39:25.307Z,92.31
2023-04-10T07:41:54.154Z,92.80
2023-04-10T07:44:20.621Z,91.78
2023-04-10T07:46:47.427Z,92.88
2023-04-10T07:49:13.755Z,90.50
2023-04-10T07:51:40.172Z,89.42
2023-04-10T07:54:06.551Z,90.29
2023-04-10T07:56:32.846Z,88.14
2023-04-10T07:59:00.677Z,85.76
2023-04-10T08:01:28.596Z,83.71
2023-04-10T08:03:56.368Z,83.98
2023-04-10T08:06:23.083Z,83.13
2023-04-10T08:08:49.434Z,81.53
2023-04-10T08:11:32.360Z,81.57
2023-04-10T08:14:05.385Z,80.86
2023-04-10T08:16:34.130Z,80.13
2023-04-10T08:19:01.746Z,78.11
2023-04-10T08:21:29.772Z,79.62
2023-04-10T08:23:57.925Z,76.71
2023-04-10T08:26:25.994Z,69.17
2023-04-10T08:28:55.426Z,69.11
2023-04-10T08:31:23.388Z,69.05
2023-04-10T08:33:50.483Z,64.61
2023-04-10T08:36:19.616Z,65.28
2023-04-10T08:38:47.227Z,62.78
2023-04-10T08:41:15.824Z,61.59
2023-04-10T08:43:43.432Z,63.43
2023-04-10T08:46:09.940Z,64.42
2023-04-10T08:48:53.129Z,59.96
2023-04-10T08:51:26.371Z,59.97
2023-04-10T08:54:00.279Z,59.15
2023-04-10T08:56:27.079Z,57.63
2023-04-10T08:58:53.740Z,60.19
2023-04-10T09:01:21.423Z,58.06
2023-04-10T09:03:48.826Z,59.14
2023-04-10T09:06:15.327Z,60.64
2023-04-10T09:08:41.614Z,57.33
2023-04-10T09:11:08.032Z,59.83
2023-04-10T09:13:43.593Z,58.49
2023-04-10T09:16:11.217Z,56.72
2023-04-10T09:18:45.416Z,56.35
2023-04-10T09:21:18.324Z,55.67
2023-04-10T09:23:47.507Z,56.64
2023-04-10T09:26:24.382Z,59.17
2023-04-10T09:29:07.411Z,58.27
2023-04-10T09:31:35.828Z,54.97
2023-04-10T09:34:22.653Z,54.28
2023-04-10T09:36:59.894Z,51.27
2023-04-10T09:39:43.197Z,52.64
2023-04-10T09:42:11.403Z,52.32
2023-04-10T09:44:39.093Z,51.97
2023-04-10T09:47:14.592Z,52.51
2023-04-10T09:49:48.981Z,54.29
2023-04-10T09:52:19.698Z,51.16
2023-04-10T09:54:46.218Z,50.61
2023-04-10T09:57:19.009Z,51.52
2023-04-10T09:59:51.347Z,51.82
2023-04-10T10:02:24.633Z,53.00
2023-04-10T10:04:52.439Z,49.96
2023-04-10T10:07:21.021Z,50.16
2023-04-10T10:09:49.833Z,51.38
2023-04-10T10:12:24.324Z,48.54
2023-04-10T10:15:14.059Z,48.34
2023-04-10T10:17:49.437Z,48.78
2023-04-10T10:20:18.397Z,48.10
2023-04-10T10:22:46.395Z,49.25
2023-04-10T10:25:13.284Z,49.87
2023-04-10T10:27:41.511Z,48.61
2023-04-10T10:30:25.433Z,49.67
2023-04-10T10:32:56.205Z,46.67
2023-04-10T10:35:24.787Z,47.43
2023-04-10T10:37:52.951Z,45.23
2023-04-10T10:40:39.606Z,45.56
2023-04-10T10:43:13.198Z,45.22
2023-04-10T10:46:03.693Z,48.61
2023-04-10T10:48:30.068Z,45.08
2023-04-10T10:51:01.846Z,47.42
2023-04-10T10:53:40.376Z,46.29
2023-04-10T10:56:18.623Z,45.80
2023-04-10T10:58:53.427Z,46.81
2023-04-10T11:01:21.591Z,44.85
2023-04-10T11:03:48.644Z,46.61
2023-04-10T11:06:19.860Z,45.38
2023-04-10T11:08:49.755Z,45.11
2023-04-10T11:11:25.731Z,44.73
2023-04-10T11:13:57.984Z,46.66
2023-04-10T11:16:31.338Z,44.15
2023-04-10T11:19:13.871Z,46.63
2023-04-10T11:22:01.670Z,46.54
2023-04-10T11:24:29.588Z,47.95
2023-04-10T11:26:56.091Z,46.51
2023-04-10T11:29:28.447Z,48.66
2023-04-10T11:32:00.503Z,47.62
2023-04-10T11:34:27.628Z,47.14
2023-04-10T11:36:54.339Z,47.78
2023-04-10T11:39:21.470Z,45.33
2023-04-10T11:41:50.418Z,43.80
2023-04-10T11:44:22.539Z,46.17
2023-04-10T11:46:50.893Z,47.65
2023-04-10T11:49:26.367Z,46.87
2023-04-10T11:51:53.264Z,45.33
2023-04-10T11:54:21.773Z,46.60
2023-04-10T11:57:03.237Z,44.38
2023-04-10T11:59:30.905Z,45.33
2023-04-10T12:02:15.719Z,42.55
2023-04-10T12:04:43.684Z,41.58
2023-04-10T12:07:10.957Z,43.36
2023-04-10T12:09:37.436Z,43.25
2023-04-10T12:12:05.641Z,40.85
2023-04-10T12:14:39.352Z,39.37
2023-04-10T12:17:08.008Z,40.16
2023-04-10T12:19:35.361Z,41.05
2023-04-10T12:22:02.851Z,42.60
2023-04-10T12:24:46.170Z,44.47
2023-04-10T12:27:30.697Z,40.39
2023-04-10T12:29:58.569Z,40.35
2023-04-10T12:32:27.049Z,43.07
2023-04-10T12:34:58.225Z,41.45
2023-04-10T12:37:25.847Z,40.70
2023-04-10T12:39:52.415Z,38.98
2023-04-10T12:42:20.998Z,38.56
2023-04-10T12:44:58.837Z,39.89
2023-04-10T12:47:27.410Z,38.73
2023-04-10T12:50:10.909Z,37.97
2023-04-10T12:52:40.263Z,38.06
2023-04-10T12:55:14.436Z,38.84
2023-04-10T12:57:42.408Z,40.75
2023-04-10T13:00:11.152Z,41.60
2023-04-10T13:02:38.416Z,42.02
2023-04-10T13:05:06.149Z,40.64
2023-04-10T13:07:32.672Z,43.28
2023-04-10T13:09:59.726Z,39.72
2023-04-10T13:12:27.066Z,40.87
2023-04-10T13:14:54.329Z,41.43
2023-04-10T13:17:21.741Z,42.26
2023-04-10T13:19:48.200Z,41.92
2023-04-10T13:22:14.553Z,41.48
2023-04-10T13:24:41.708Z,40.61
2023-04-10T13:27:09.460Z,43.09
2023-04-10T13:29:36.856Z,41.70
2023-04-10T13:32:05.295Z,41.68
2023-04-10T13:34:32.842Z,42.35
2023-04-10T13:36:59.607Z,44.14
2023-04-10T13:39:26.900Z,42.38
2023-04-10T13:41:53.241Z,43.85
2023-04-10T13:44:19.620Z,42.29
2023-04-10T13:46:46.088Z,40.65
2023-04-10T13:49:16.892Z,40.49
2023-04-10T13:51:45.069Z,41.31
2023-04-10T13:54:11.477Z,40.91
2023-04-10T13:56:37.939Z,41.05
2023-04-10T13:59:05.429Z,41.82
2023-04-10T14:01:31.780Z,41.13
2023-04-10T14:03:58.188Z,41.04
2023-04-10T14:06:24.691Z,42.60
2023-04-10T14:08:51.008Z,41.56
2023-04-10T14:11:17.325Z,41.73
2023-04-10T14:13:43.601Z,41.54
2023-04-10T14:16:09.994Z,42.55
2023-04-10T14:18:37.123Z,42.33
2023-04-10T14:21:03.990Z,43.35
2023-04-10T14:23:30.294Z,43.25
2023-04-10T14:25:56.687Z,42.34
2023-04-10T14:28:22.996Z,41.67
2023-04-10T14:30:51.329Z,42.55
2023-04-10T14:33:20.021Z,41.00
2023-04-10T14:35:47.385Z,42.84
2023-04-10T14:38:13.770Z,42.32
2023-04-10T14:40:43.596Z,41.90
2023-04-10T14:43:09.938Z,41.72
2023-04-10T14:45:36.334Z,42.35
2023-04-10T14:48:03.087Z,41.80
2023-04-10T14:50:31.716Z,41.88
2023-04-10T14:52:59.997Z,41.96
2023-04-10T14:55:28.666Z,42.98
2023-04-10T14:57:56.069Z,41.17
2023-04-10T15:00:29.463Z,40.42
2023-04-10T15:02:58.862Z,41.50
2023-04-10T15:05:26.409Z,43.45
2023-04-10T15:07:53.016Z,43.21
2023-04-10T15:10:19.505Z,40.53
2023-04-10T15:12:45.851Z,42.66
2023-04-10T15:15:12.275Z,42.80
2023-04-10T15:17:38.639Z,40.36
2023-04-10T15:20:05.676Z,40.47
2023-04-10T15:22:32.026Z,40.26
2023-04-10T15:24:58.435Z,41.03
2023-04-10T15:27:24.776Z,41.99
2023-04-10T15:29:51.170Z,43.34
2023-04-10T15:32:17.554Z,42.58
2023-04-10T15:34:44.421Z,42.94
2023-04-10T15:37:11.493Z,40.25
2023-04-10T15:39:37.882Z,41.80
2023-04-10T15:42:05.924Z,41.64
2023-04-10T15:44:32.411Z,41.40
2023-04-10T15:46:58.712Z,40.89
2023-04-10T15:49:34.396Z,40.57
2023-04-10T15:52:03.576Z,40.35
2023-04-10T15:54:30.038Z,41.33
2023-04-10T15:56:57.347Z,41.15
2023-04-10T15:59:25.079Z,41.02
2023-04-10T16:01:51.513Z,40.90
2023-04-10T16:04:18.042Z,40.72
2023-04-10T16:06:44.395Z,40.88
2023-04-10T16:09:24.131Z,40.13
2023-04-10T16:11:51.552Z,40.60
2023-04-10T16:14:18.892Z,41.31
2023-04-10T16:16:45.590Z,41.27
2023-04-10T16:19:11.887Z,40.98
2023-04-10T16:21:38.226Z,41.65
2023-04-10T16:24:04.810Z,41.51
2023-04-10T16:26:31.189Z,41.48
2023-04-10T16:28:57.497Z,41.97
2023-04-10T16:31:24.218Z,43.12
2023-04-10T16:33:50.649Z,42.43
2023-04-10T16:36:17.450Z,42.84
2023-04-10T16:38:44.436Z,42.94
2023-04-10T16:41:12.284Z,43.04
2023-04-10T16:43:38.610Z,43.24
2023-04-10T16:46:05.186Z,43.33
2023-04-10T16:48:32.217Z,43.40
2023-04-10T16:51:05.560Z,43.77
2023-04-10T16:53:36.093Z,45.61
2023-04-10T16:56:04.786Z,44.49
2023-04-10T16:58:32.190Z,43.56
2023-04-10T17:00:58.753Z,44.41
2023-04-10T17:03:25.208Z,45.36
2023-04-10T17:05:51.539Z,44.67
2023-04-10T17:08:17.884Z,44.81
2023-04-10T17:10:44.193Z,44.92
2023-04-10T17:13:10.526Z,44.56
2023-04-10T17:15:36.822Z,45.36
2023-04-10T17:18:03.316Z,45.70
2023-04-10T17:20:30.732Z,45.85
2023-04-10T17:22:57.029Z,46.46
2023-04-10T17:25:23.397Z,45.96
2023-04-10T17:27:49.746Z,46.05
2023-04-10T17:30:16.116Z,46.46
2023-04-10T17:32:43.268Z,47.34
2023-04-10T17:35:09.636Z,45.45
2023-04-10T17:37:35.938Z,44.08
2023-04-10T17:40:02.283Z,44.29
2023-04-10T17:42:28.597Z,43.85
2023-04-10T17:44:54.932Z,43.27
2023-04-10T17:47:21.376Z,43.55
2023-04-10T17:49:47.777Z,43.56
2023-04-10T17:52:14.065Z,44.21
2023-04-10T17:54:41.142Z,44.59
2023-04-10T17:57:07.461Z,44.33
2023-04-10T17:59:33.776Z,45.32
2023-04-10T18:02:00.140Z,45.47
2023-04-10T18:04:26.470Z,45.81
2023-04-10T18:06:52.884Z,45.41
2023-04-10T18:09:19.244Z,45.75
2023-04-10T18:11:47.766Z,45.13
2023-04-10T18:14:14.064Z,45.47
2023-04-10T18:16:40.387Z,46.32
2023-04-10T18:19:07.122Z,46.96
2023-04-10T18:21:34.676Z,46.86
2023-04-10T18:24:00.971Z,46.35
2023-04-10T18:26:33.155Z,46.79
2023-04-10T18:29:00.827Z,47.11
2023-04-10T18:31:27.610Z,47.07
2023-04-10T18:34:06.618Z,47.34
2023-04-10T18:36:33.971Z,47.31
2023-04-10T18:39:00.465Z,47.79
2023-04-10T18:41:26.882Z,48.23
2023-04-10T18:44:01.708Z,48.52
2023-04-10T18:46:32.238Z,49.15
2023-04-10T18:48:58.832Z,49.42
2023-04-10T18:51:26.365Z,49.68
2023-04-10T18:53:53.059Z,50.58
2023-04-10T18:56:19.545Z,49.68
2023-04-10T18:58:47.564Z,49.75
2023-04-10T19:01:17.436Z,49.66
2023-04-10T19:03:43.934Z,50.35
2023-04-10T19:06:10.551Z,50.47
2023-04-10T19:08:37.188Z,50.57
2023-04-10T19:11:05.041Z,50.83
2023-04-10T19:13:31.403Z,51.88
2023-04-10T19:15:57.814Z,53.42
2023-04-10T19:18:24.182Z,53.70
2023-04-10T19:20:53.265Z,54.73
2023-04-10T19:23:20.609Z,54.50
2023-04-10T19:25:50.875Z,55.09
2023-04-10T19:28:17.223Z,56.18
2023-04-10T19:30:43.587Z,55.43
2023-04-10T19:33:09.953Z,57.19
2023-04-10T19:35:36.344Z,56.51
2023-04-10T19:38:02.724Z,55.96
2023-04-10T19:40:30.808Z,56.15
2023-04-10T19:42:59.409Z,57.10
2023-04-10T19:45:27.339Z,57.91
2023-04-10T19:47:53.730Z,58.79
2023-04-10T19:50:20.226Z,59.26
2023-04-10T19:52:46.595Z,59.88
2023-04-10T19:55:13.252Z,61.79
2023-04-10T19:57:40.169Z,61.73
2023-04-10T20:00:07.355Z,66.38
2023-04-10T20:02:38.684Z,71.38
2023-04-10T20:05:05.885Z,72.41
2023-04-10T20:07:32.273Z,73.70
2023-04-10T20:10:03.119Z,72.38
2023-04-10T20:12:35.892Z,72.82
2023-04-10T20:15:03.610Z,72.00
2023-04-10T20:17:29.990Z,71.76
2023-04-10T20:19:56.771Z,71.20
2023-04-10T20:22:23.204Z,70.63
2023-04-10T20:24:49.546Z,70.82
2023-04-10T20:27:15.887Z,70.91
2023-04-10T20:29:42.452Z,71.62
2023-04-10T20:32:09.459Z,72.11
2023-04-10T20:34:36.883Z,72.79
2023-04-10T20:37:03.708Z,72.22
2023-04-10T20:39:30.190Z,72.27
2023-04-10T20:41:57.102Z,73.56
2023-04-10T20:44:23.450Z,73.85
2023-04-10T20:46:50.393Z,74.83
2023-04-10T20:49:17.405Z,75.11
2023-04-10T20:51:43.705Z,73.41
2023-04-10T20:54:10.046Z,73.31
2023-04-10T20:56:42.964Z,75.25
2023-04-10T20:59:10.976Z,74.40
2023-04-10T21:01:37.423Z,74.50
2023-04-10T21:04:03.987Z,73.82
2023-04-10T21:06:33.058Z,72.80
2023-04-10T21:08:59.383Z,72.38
2023-04-10T21:11:26.946Z,71.61
2023-04-10T21:13:53.369Z,70.90
2023-04-10T21:16:19.753Z,71.12
2023-04-10T21:18:47.308Z,71.20
2023-04-10T21:21:13.608Z,72.71
2023-04-10T21:23:39.904Z,72.89
2023-04-10T21:26:06.992Z,76.36
2023-04-10T21:28:33.373Z,74.38
2023-04-10T21:30:59.683Z,74.85
2023-04-10T21:33:26.005Z,74.69
2023-04-10T21:35:52.388Z,73.76
2023-04-10T21:38:18.733Z,72.73
2023-04-10T21:40:52.194Z,72.82
2023-04-10T21:43:19.397Z,72.21
2023-04-10T21:45:45.777Z,73.49
2023-04-10T21:48:12.539Z,74.23
2023-04-10T21:50:39.724Z,75.49
2023-04-10T21:53:06.173Z,77.10
2023-04-10T21:55:32.448Z,77.93
2023-04-10T21:57:58.758Z,77.98
2023-04-10T22:00:25.100Z,79.04
2023-04-10T22:02:51.835Z,80.48
2023-04-10T22:05:18.550Z,82.29
2023-04-10T22:07:44.928Z,84.79
2023-04-10T22:10:11.609Z,86.19
2023-04-10T22:12:37.937Z,90.81
2023-04-10T22:15:05.056Z,92.16
2023-04-10T22:17:31.356Z,94.96
2023-04-10T22:19:57.725Z,95.80
2023-04-10T22:22:24.157Z,100.00
2023-04-10T22:24:50.831Z,100.00
2023-04-10T22:27:17.214Z,100.00
2023-04-10T22:29:47.710Z,100.00
2023-04-10T22:32:19.490Z,100.00
2023-04-10T22:34:45.787Z,100.00
2023-04-10T22:37:12.079Z,100.00
2023-04-10T22:39:38.481Z,100.00
2023-04-10T22:42:04.816Z,100.00
2023-04-10T22:44:31.153Z,100.00
2023-04-10T22:46:57.465Z,100.00
2023-04-10T22:49:23.921Z,100.00
2023-04-10T22:51:50.324Z,100.00
2023-04-10T22:54:16.697Z,100.00
2023-04-10T22:56:43.969Z,100.00
2023-04-10T22:59:10.744Z,100.00
2023-04-10T23:01:37.126Z,100.00
2023-04-10T23:04:03.546Z,100.00
2023-04-10T23:06:31.610Z,100.00
2023-04-10T23:08:58.097Z,100.00
2023-04-10T23:11:24.644Z,100.00
2023-04-10T23:13:50.945Z,100.00
2023-04-10T23:16:17.315Z,100.00
2023-04-10T23:18:43.692Z,100.00
2023-04-10T23:21:10.037Z,100.00
2023-04-10T23:23:36.341Z,100.00
2023-04-10T23:26:02.771Z,100.00
2023-04-10T23:28:29.195Z,100.00
2023-04-10T23:30:55.554Z,100.00
2023-04-10T23:33:22.179Z,100.00
2023-04-10T23:35:48.571Z,100.00
2023-04-10T23:38:15.605Z,100.00
2023-04-10T23:40:41.953Z,100.00
2023-04-10T23:43:08.303Z,100.00
2023-04-10T23:45:34.597Z,100.00
2023-04-10T23:48:00.898Z,100.00
2023-04-10T23:50:27.508Z,100.00
2023-04-10T23:52:54.053Z,100.00
2023-04-10T23:55:21.461Z,100.00
2023-04-10T23:57:47.755Z,100.00
